sensor_id;sensor_type;location;lat;lon;timestamp;pressure;altitude;pressure_sealevel;temperature;humidity
13241;BME280;6687;47.790;7.322;2023-07-09T05:25:12;99332.50;;;24.37;66.52
13241;BME280;6687;47.790;7.322;2023-07-09T05:27:39;99329.38;;;24.29;65.39
13241;BME280;6687;47.790;7.322;2023-07-09T05:30:06;99325.19;;;24.42;64.36
13241;BME280;6687;47.790;7.322;2023-07-09T05:32:34;99328.50;;;24.83;64.04
13241;BME280;6687;47.790;7.322;2023-07-09T05:35:01;99320.41;;;25.03;63.17
13241;BME280;6687;47.790;7.322;2023-07-09T05:37:28;99324.00;;;25.02;62.31
13241;BME280;6687;47.790;7.322;2023-07-09T05:39:55;99319.91;;;25.12;62.86
13241;BME280;6687;47.790;7.322;2023-07-09T05:42:23;99326.88;;;25.48;62.21
13241;BME280;6687;47.790;7.322;2023-07-09T05:44:51;99326.78;;;25.67;61.01
13241;BME280;6687;47.790;7.322;2023-07-09T05:47:18;99323.69;;;25.75;60.41
13241;BME280;6687;47.790;7.322;2023-07-09T05:49:44;99329.19;;;25.88;59.67
13241;BME280;6687;47.790;7.322;2023-07-09T05:52:14;99313.28;;;26.04;58.60
13241;BME280;6687;47.790;7.322;2023-07-09T05:54:41;99323.03;;;26.19;57.65
13241;BME280;6687;47.790;7.322;2023-07-09T05:57:08;99319.31;;;26.37;57.03
13241;BME280;6687;47.790;7.322;2023-07-09T05:59:36;99315.19;;;26.64;57.10
13241;BME280;6687;47.790;7.322;2023-07-09T06:02:04;99322.19;;;26.81;56.10
13241;BME280;6687;47.790;7.322;2023-07-09T06:04:30;99319.25;;;26.99;56.82
13241;BME280;6687;47.790;7.322;2023-07-09T06:06:57;99319.00;;;27.04;53.76
13241;BME280;6687;47.790;7.322;2023-07-09T06:09:24;99325.84;;;27.23;53.37
13241;BME280;6687;47.790;7.322;2023-07-09T06:11:50;99335.38;;;27.41;52.83
13241;BME280;6687;47.790;7.322;2023-07-09T06:14:18;99325.31;;;27.46;50.56
13241;BME280;6687;47.790;7.322;2023-07-09T06:16:46;99331.78;;;27.56;50.21
13241;BME280;6687;47.790;7.322;2023-07-09T06:19:13;99326.63;;;27.82;50.15
13241;BME280;6687;47.790;7.322;2023-07-09T06:21:39;99323.97;;;27.82;49.19
13241;BME280;6687;47.790;7.322;2023-07-09T06:24:07;99322.31;;;28.08;49.79
13241;BME280;6687;47.790;7.322;2023-07-09T06:26:35;99321.81;;;28.16;48.46
13241;BME280;6687;47.790;7.322;2023-07-09T06:29:02;99318.41;;;28.41;48.94
13241;BME280;6687;47.790;7.322;2023-07-09T06:31:29;99325.13;;;28.47;47.64
13241;BME280;6687;47.790;7.322;2023-07-09T06:33:59;99322.63;;;28.58;47.04
13241;BME280;6687;47.790;7.322;2023-07-09T06:36:26;99332.28;;;28.73;46.41
13241;BME280;6687;47.790;7.322;2023-07-09T06:38:53;99328.16;;;28.95;46.51
13241;BME280;6687;47.790;7.322;2023-07-09T06:41:21;99328.06;;;29.09;46.01
13241;BME280;6687;47.790;7.322;2023-07-09T06:43:49;99328.09;;;29.35;46.61
13241;BME280;6687;47.790;7.322;2023-07-09T06:46:19;99331.72;;;29.34;44.91
13241;BME280;6687;47.790;7.322;2023-07-09T06:48:47;99321.28;;;29.31;44.33
13241;BME280;6687;47.790;7.322;2023-07-09T06:51:16;99315.91;;;29.44;43.97
13241;BME280;6687;47.790;7.322;2023-07-09T06:53:43;99318.44;;;29.71;44.07
13241;BME280;6687;47.790;7.322;2023-07-09T06:56:13;99318.66;;;29.68;43.09
13241;BME280;6687;47.790;7.322;2023-07-09T06:58:41;99316.94;;;29.92;42.97
13241;BME280;6687;47.790;7.322;2023-07-09T07:01:08;99315.34;;;30.14;42.87
13241;BME280;6687;47.790;7.322;2023-07-09T07:03:37;99314.84;;;30.09;41.88
13241;BME280;6687;47.790;7.322;2023-07-09T07:06:04;99320.66;;;30.27;41.94
13241;BME280;6687;47.790;7.322;2023-07-09T07:08:33;99309.22;;;30.49;41.79
13241;BME280;6687;47.790;7.322;2023-07-09T07:11:01;99315.22;;;30.64;41.37
13241;BME280;6687;47.790;7.322;2023-07-09T07:13:30;99311.03;;;30.72;41.20
13241;BME280;6687;47.790;7.322;2023-07-09T07:15:57;99314.97;;;30.91;41.19
13241;BME280;6687;47.790;7.322;2023-07-09T07:18:24;99309.66;;;31.13;40.51
13241;BME280;6687;47.790;7.322;2023-07-09T07:20:51;99315.78;;;31.27;40.01
13241;BME280;6687;47.790;7.322;2023-07-09T07:23:18;99312.84;;;31.41;39.35
13241;BME280;6687;47.790;7.322;2023-07-09T07:25:47;99313.09;;;31.27;39.25
13241;BME280;6687;47.790;7.322;2023-07-09T07:28:16;99316.06;;;31.46;38.67
13241;BME280;6687;47.790;7.322;2023-07-09T07:30:43;99318.84;;;31.79;38.59
13241;BME280;6687;47.790;7.322;2023-07-09T07:33:10;99321.13;;;31.95;38.32
13241;BME280;6687;47.790;7.322;2023-07-09T07:35:37;99323.94;;;32.04;38.00
13241;BME280;6687;47.790;7.322;2023-07-09T07:38:04;99317.72;;;31.92;37.85
13241;BME280;6687;47.790;7.322;2023-07-09T07:40:31;99318.91;;;32.11;37.31
13241;BME280;6687;47.790;7.322;2023-07-09T07:42:59;99317.38;;;32.41;36.03
13241;BME280;6687;47.790;7.322;2023-07-09T07:45:26;99321.88;;;32.08;37.11
13241;BME280;6687;47.790;7.322;2023-07-09T07:47:53;99319.16;;;32.52;36.50
13241;BME280;6687;47.790;7.322;2023-07-09T07:50:19;99317.72;;;32.80;35.91
13241;BME280;6687;47.790;7.322;2023-07-09T07:52:46;99320.16;;;32.83;35.79
13241;BME280;6687;47.790;7.322;2023-07-09T07:55:15;99321.97;;;33.03;34.86
13241;BME280;6687;47.790;7.322;2023-07-09T07:57:42;99328.81;;;33.38;35.00
13241;BME280;6687;47.790;7.322;2023-07-09T08:00:11;99322.41;;;33.51;34.90
13241;BME280;6687;47.790;7.322;2023-07-09T08:02:38;99323.19;;;33.72;33.98
13241;BME280;6687;47.790;7.322;2023-07-09T08:05:05;99322.84;;;33.96;33.98
13241;BME280;6687;47.790;7.322;2023-07-09T08:07:32;99318.63;;;34.13;34.46
13241;BME280;6687;47.790;7.322;2023-07-09T08:09:59;99316.13;;;34.21;32.45
13241;BME280;6687;47.790;7.322;2023-07-09T08:12:25;99314.75;;;34.46;32.89
13241;BME280;6687;47.790;7.322;2023-07-09T08:14:52;99319.72;;;33.91;34.14
13241;BME280;6687;47.790;7.322;2023-07-09T08:17:20;99326.31;;;34.27;33.04
13241;BME280;6687;47.790;7.322;2023-07-09T08:19:49;99324.63;;;34.46;33.72
13241;BME280;6687;47.790;7.322;2023-07-09T08:22:16;99318.44;;;34.75;31.95
13241;BME280;6687;47.790;7.322;2023-07-09T08:24:45;99326.19;;;34.97;32.70
13241;BME280;6687;47.790;7.322;2023-07-09T08:27:12;99323.25;;;34.81;31.37
13241;BME280;6687;47.790;7.322;2023-07-09T08:29:39;99319.50;;;35.21;32.92
13241;BME280;6687;47.790;7.322;2023-07-09T08:32:08;99310.47;;;35.02;32.51
13241;BME280;6687;47.790;7.322;2023-07-09T08:34:37;99305.56;;;35.35;31.80
13241;BME280;6687;47.790;7.322;2023-07-09T08:37:06;99308.34;;;35.43;32.20
13241;BME280;6687;47.790;7.322;2023-07-09T08:39:33;99310.63;;;34.72;31.15
13241;BME280;6687;47.790;7.322;2023-07-09T08:42:03;99314.94;;;35.31;32.09
13241;BME280;6687;47.790;7.322;2023-07-09T08:44:55;99300.50;;;35.60;31.49
13241;BME280;6687;47.790;7.322;2023-07-09T08:47:31;99291.72;;;35.20;31.32
13241;BME280;6687;47.790;7.322;2023-07-09T08:50:04;99292.28;;;35.24;31.39
13241;BME280;6687;47.790;7.322;2023-07-09T08:52:36;99306.22;;;35.84;31.52
13241;BME280;6687;47.790;7.322;2023-07-09T08:55:06;99297.53;;;36.09;30.69
13241;BME280;6687;47.790;7.322;2023-07-09T08:57:38;99294.09;;;36.16;29.68
13241;BME280;6687;47.790;7.322;2023-07-09T09:00:13;99298.72;;;36.42;31.17
13241;BME280;6687;47.790;7.322;2023-07-09T09:02:45;99290.81;;;35.95;30.31
13241;BME280;6687;47.790;7.322;2023-07-09T09:05:20;99289.16;;;35.56;30.39
13241;BME280;6687;47.790;7.322;2023-07-09T09:07:51;99291.91;;;36.02;30.10
13241;BME280;6687;47.790;7.322;2023-07-09T09:10:24;99291.22;;;36.90;28.43
13241;BME280;6687;47.790;7.322;2023-07-09T09:13:02;99286.44;;;36.83;29.53
13241;BME280;6687;47.790;7.322;2023-07-09T09:15:31;99287.19;;;36.32;29.85
13241;BME280;6687;47.790;7.322;2023-07-09T09:18:15;99298.63;;;36.88;29.85
13241;BME280;6687;47.790;7.322;2023-07-09T09:20:46;99289.53;;;36.71;29.58
13241;BME280;6687;47.790;7.322;2023-07-09T09:23:15;99282.19;;;37.25;28.84
13241;BME280;6687;47.790;7.322;2023-07-09T09:25:45;99286.25;;;36.77;29.93
13241;BME280;6687;47.790;7.322;2023-07-09T09:28:14;99287.09;;;37.30;29.52
13241;BME280;6687;47.790;7.322;2023-07-09T09:30:40;99283.91;;;37.34;29.70
13241;BME280;6687;47.790;7.322;2023-07-09T09:33:09;99285.66;;;37.52;29.53
13241;BME280;6687;47.790;7.322;2023-07-09T09:35:38;99285.38;;;37.02;30.26
13241;BME280;6687;47.790;7.322;2023-07-09T09:38:12;99280.75;;;37.13;29.79
13241;BME280;6687;47.790;7.322;2023-07-09T09:40:39;99283.13;;;37.50;29.38
13241;BME280;6687;47.790;7.322;2023-07-09T09:43:11;99285.22;;;37.30;29.80
13241;BME280;6687;47.790;7.322;2023-07-09T09:45:40;99277.94;;;36.78;29.77
13241;BME280;6687;47.790;7.322;2023-07-09T09:48:13;99278.78;;;37.23;28.51
13241;BME280;6687;47.790;7.322;2023-07-09T09:50:41;99278.00;;;37.31;28.01
13241;BME280;6687;47.790;7.322;2023-07-09T09:53:09;99276.69;;;37.86;29.05
13241;BME280;6687;47.790;7.322;2023-07-09T09:55:38;99277.00;;;37.40;29.61
13241;BME280;6687;47.790;7.322;2023-07-09T09:58:11;99276.56;;;37.53;28.96
13241;BME280;6687;47.790;7.322;2023-07-09T10:00:39;99270.25;;;37.78;30.05
13241;BME280;6687;47.790;7.322;2023-07-09T10:03:06;99267.94;;;37.57;29.49
13241;BME280;6687;47.790;7.322;2023-07-09T10:05:37;99265.53;;;37.12;29.54
13241;BME280;6687;47.790;7.322;2023-07-09T10:08:08;99257.03;;;37.67;27.91
13241;BME280;6687;47.790;7.322;2023-07-09T10:10:39;99250.00;;;37.14;28.67
13241;BME280;6687;47.790;7.322;2023-07-09T10:13:15;99260.66;;;37.50;28.29
13241;BME280;6687;47.790;7.322;2023-07-09T10:15:58;99252.28;;;37.61;27.94
13241;BME280;6687;47.790;7.322;2023-07-09T10:18:34;99254.75;;;38.05;28.48
13241;BME280;6687;47.790;7.322;2023-07-09T10:21:08;99258.34;;;37.02;28.48
13241;BME280;6687;47.790;7.322;2023-07-09T10:23:45;99252.03;;;38.05;28.39
13241;BME280;6687;47.790;7.322;2023-07-09T10:26:19;99258.28;;;37.89;27.88
13241;BME280;6687;47.790;7.322;2023-07-09T10:29:00;99252.75;;;38.24;28.08
13241;BME280;6687;47.790;7.322;2023-07-09T10:31:33;99251.06;;;39.05;26.66
13241;BME280;6687;47.790;7.322;2023-07-09T10:34:17;99252.31;;;39.25;27.02
13241;BME280;6687;47.790;7.322;2023-07-09T10:36:58;99254.81;;;38.71;27.45
13241;BME280;6687;47.790;7.322;2023-07-09T10:39:32;99262.47;;;39.31;25.78
13241;BME280;6687;47.790;7.322;2023-07-09T10:42:02;99255.00;;;39.50;26.91
13241;BME280;6687;47.790;7.322;2023-07-09T10:44:33;99252.31;;;40.04;25.10
13241;BME280;6687;47.790;7.322;2023-07-09T10:47:05;99259.41;;;39.82;27.12
13241;BME280;6687;47.790;7.322;2023-07-09T10:49:35;99247.06;;;40.26;24.26
13241;BME280;6687;47.790;7.322;2023-07-09T10:52:07;99253.38;;;40.49;25.52
13241;BME280;6687;47.790;7.322;2023-07-09T10:54:40;99247.88;;;40.11;26.86
13241;BME280;6687;47.790;7.322;2023-07-09T10:57:22;99240.38;;;40.13;25.95
13241;BME280;6687;47.790;7.322;2023-07-09T10:59:52;99250.03;;;39.85;26.37
13241;BME280;6687;47.790;7.322;2023-07-09T11:02:23;99241.66;;;40.26;25.92
13241;BME280;6687;47.790;7.322;2023-07-09T11:04:53;99240.56;;;40.35;26.77
13241;BME280;6687;47.790;7.322;2023-07-09T11:07:32;99238.88;;;39.88;26.81
13241;BME280;6687;47.790;7.322;2023-07-09T11:10:01;99235.34;;;40.48;25.87
13241;BME280;6687;47.790;7.322;2023-07-09T11:12:34;99230.69;;;41.10;24.83
13241;BME280;6687;47.790;7.322;2023-07-09T11:15:06;99235.69;;;41.21;25.53
13241;BME280;6687;47.790;7.322;2023-07-09T11:17:40;99226.19;;;41.47;21.33
13241;BME280;6687;47.790;7.322;2023-07-09T11:20:19;99228.78;;;41.40;25.09
13241;BME280;6687;47.790;7.322;2023-07-09T11:22:52;99226.84;;;41.34;25.13
13241;BME280;6687;47.790;7.322;2023-07-09T11:25:28;99226.28;;;41.39;24.80
13241;BME280;6687;47.790;7.322;2023-07-09T11:28:04;99224.09;;;41.49;24.35
13241;BME280;6687;47.790;7.322;2023-07-09T11:30:31;99230.44;;;41.56;23.93
13241;BME280;6687;47.790;7.322;2023-07-09T11:33:01;99217.94;;;41.98;17.69
13241;BME280;6687;47.790;7.322;2023-07-09T11:35:45;99218.94;;;42.33;22.68
13241;BME280;6687;47.790;7.322;2023-07-09T11:38:17;99227.19;;;41.97;23.75
13241;BME280;6687;47.790;7.322;2023-07-09T11:40:48;99233.19;;;41.71;23.76
13241;BME280;6687;47.790;7.322;2023-07-09T11:43:32;99224.94;;;41.49;23.84
13241;BME280;6687;47.790;7.322;2023-07-09T11:46:07;99221.66;;;41.90;23.90
13241;BME280;6687;47.790;7.322;2023-07-09T11:48:39;99212.84;;;41.88;21.48
13241;BME280;6687;47.790;7.322;2023-07-09T11:51:10;99215.31;;;42.76;18.37
13241;BME280;6687;47.790;7.322;2023-07-09T11:53:44;99205.19;;;41.41;21.96
13241;BME280;6687;47.790;7.322;2023-07-09T11:56:13;99208.41;;;42.02;22.58
13241;BME280;6687;47.790;7.322;2023-07-09T11:58:49;99195.22;;;42.84;21.22
13241;BME280;6687;47.790;7.322;2023-07-09T12:01:18;99185.69;;;42.95;18.05
13241;BME280;6687;47.790;7.322;2023-07-09T12:03:46;99200.03;;;43.17;19.87
13241;BME280;6687;47.790;7.322;2023-07-09T12:06:18;99180.88;;;43.38;14.26
13241;BME280;6687;47.790;7.322;2023-07-09T12:08:46;99181.22;;;43.90;14.73
13241;BME280;6687;47.790;7.322;2023-07-09T12:11:19;99180.63;;;44.15;15.34
13241;BME280;6687;47.790;7.322;2023-07-09T12:13:46;99177.25;;;44.13;19.02
13241;BME280;6687;47.790;7.322;2023-07-09T12:16:25;99168.56;;;43.14;20.52
13241;BME280;6687;47.790;7.322;2023-07-09T12:18:52;99173.84;;;43.71;20.11
13241;BME280;6687;47.790;7.322;2023-07-09T12:21:19;99159.59;;;44.15;19.47
13241;BME280;6687;47.790;7.322;2023-07-09T12:23:46;99162.94;;;44.64;14.66
13241;BME280;6687;47.790;7.322;2023-07-09T12:26:14;99161.91;;;44.58;18.71
13241;BME280;6687;47.790;7.322;2023-07-09T12:28:41;99154.91;;;44.82;19.02
13241;BME280;6687;47.790;7.322;2023-07-09T12:31:13;99150.25;;;45.03;16.10
13241;BME280;6687;47.790;7.322;2023-07-09T12:33:48;99146.16;;;44.54;20.18
13241;BME280;6687;47.790;7.322;2023-07-09T12:36:17;99146.94;;;44.74;19.63
13241;BME280;6687;47.790;7.322;2023-07-09T12:38:45;99137.41;;;44.97;19.00
13241;BME280;6687;47.790;7.322;2023-07-09T12:41:18;99148.25;;;45.23;15.32
13241;BME280;6687;47.790;7.322;2023-07-09T12:43:45;99150.66;;;44.86;19.12
13241;BME280;6687;47.790;7.322;2023-07-09T12:46:13;99137.19;;;45.05;18.79
13241;BME280;6687;47.790;7.322;2023-07-09T12:48:40;99136.41;;;44.91;16.51
13241;BME280;6687;47.790;7.322;2023-07-09T12:51:08;99137.91;;;44.74;18.07
13241;BME280;6687;47.790;7.322;2023-07-09T12:53:36;99132.81;;;43.50;17.67
13241;BME280;6687;47.790;7.322;2023-07-09T12:56:11;99135.44;;;44.05;17.81
13241;BME280;6687;47.790;7.322;2023-07-09T12:58:39;99128.41;;;44.76;15.66
13241;BME280;6687;47.790;7.322;2023-07-09T13:01:06;99137.09;;;44.06;16.46
13241;BME280;6687;47.790;7.322;2023-07-09T13:03:34;99135.41;;;43.92;16.25
13241;BME280;6687;47.790;7.322;2023-07-09T13:06:02;99117.34;;;44.04;16.55
13241;BME280;6687;47.790;7.322;2023-07-09T13:08:32;99134.31;;;43.66;18.72
13241;BME280;6687;47.790;7.322;2023-07-09T13:11:00;99124.94;;;44.09;13.66
13241;BME280;6687;47.790;7.322;2023-07-09T13:13:27;99125.06;;;44.88;15.54
13241;BME280;6687;47.790;7.322;2023-07-09T13:15:56;99123.03;;;44.36;16.27
13241;BME280;6687;47.790;7.322;2023-07-09T13:18:24;99121.38;;;43.20;17.42
13241;BME280;6687;47.790;7.322;2023-07-09T13:20:53;99118.44;;;44.23;16.82
13241;BME280;6687;47.790;7.322;2023-07-09T13:23:23;99112.00;;;44.76;15.98
13241;BME280;6687;47.790;7.322;2023-07-09T13:25:52;99104.75;;;43.02;16.85
13241;BME280;6687;47.790;7.322;2023-07-09T13:28:22;99106.50;;;43.29;16.87
13241;BME280;6687;47.790;7.322;2023-07-09T13:30:52;99105.22;;;43.25;16.64
13241;BME280;6687;47.790;7.322;2023-07-09T13:33:20;99101.53;;;43.40;16.54
13241;BME280;6687;47.790;7.322;2023-07-09T13:35:47;99089.00;;;44.05;16.29
13241;BME280;6687;47.790;7.322;2023-07-09T13:38:15;99083.31;;;44.34;16.23
13241;BME280;6687;47.790;7.322;2023-07-09T13:40:43;99083.28;;;44.54;16.30
13241;BME280;6687;47.790;7.322;2023-07-09T13:43:13;99089.16;;;43.44;17.22
13241;BME280;6687;47.790;7.322;2023-07-09T13:45:40;99081.00;;;43.71;18.32
13241;BME280;6687;47.790;7.322;2023-07-09T13:48:14;99084.75;;;43.56;17.45
13241;BME280;6687;47.790;7.322;2023-07-09T13:50:42;99080.38;;;43.88;17.53
13241;BME280;6687;47.790;7.322;2023-07-09T13:53:13;99072.63;;;44.12;14.33
13241;BME280;6687;47.790;7.322;2023-07-09T13:55:41;99063.06;;;44.55;15.82
13241;BME280;6687;47.790;7.322;2023-07-09T13:58:09;99060.59;;;44.26;15.54
13241;BME280;6687;47.790;7.322;2023-07-09T14:00:38;99060.91;;;44.70;16.25
13241;BME280;6687;47.790;7.322;2023-07-09T14:03:10;99061.13;;;44.68;16.61
13241;BME280;6687;47.790;7.322;2023-07-09T14:05:39;99059.06;;;44.64;16.69
13241;BME280;6687;47.790;7.322;2023-07-09T14:08:07;99047.34;;;43.63;16.93
13241;BME280;6687;47.790;7.322;2023-07-09T14:10:34;99046.56;;;44.16;17.28
13241;BME280;6687;47.790;7.322;2023-07-09T14:13:01;99046.75;;;44.86;17.07
13241;BME280;6687;47.790;7.322;2023-07-09T14:15:28;99044.81;;;45.39;15.43
13241;BME280;6687;47.790;7.322;2023-07-09T14:17:56;99041.66;;;44.97;15.30
13241;BME280;6687;47.790;7.322;2023-07-09T14:20:24;99039.00;;;44.83;15.63
13241;BME280;6687;47.790;7.322;2023-07-09T14:22:50;99038.09;;;43.31;16.73
13241;BME280;6687;47.790;7.322;2023-07-09T14:25:21;99044.25;;;43.73;16.67
13241;BME280;6687;47.790;7.322;2023-07-09T14:27:48;99033.78;;;44.75;15.84
13241;BME280;6687;47.790;7.322;2023-07-09T14:30:16;99041.09;;;43.89;16.31
13241;BME280;6687;47.790;7.322;2023-07-09T14:32:45;99044.03;;;43.81;16.20
13241;BME280;6687;47.790;7.322;2023-07-09T14:35:16;99049.03;;;44.38;15.79
13241;BME280;6687;47.790;7.322;2023-07-09T14:37:44;99040.25;;;45.33;13.61
13241;BME280;6687;47.790;7.322;2023-07-09T14:40:12;99042.84;;;45.14;15.46
13241;BME280;6687;47.790;7.322;2023-07-09T14:42:40;99029.09;;;44.82;14.70
13241;BME280;6687;47.790;7.322;2023-07-09T14:45:16;99028.06;;;44.83;16.26
13241;BME280;6687;47.790;7.322;2023-07-09T14:47:43;99036.75;;;44.67;16.38
13241;BME280;6687;47.790;7.322;2023-07-09T14:50:10;99034.47;;;45.09;15.70
13241;BME280;6687;47.790;7.322;2023-07-09T14:52:40;99030.06;;;45.40;16.19
13241;BME280;6687;47.790;7.322;2023-07-09T14:55:13;99031.75;;;45.91;16.05
13241;BME280;6687;47.790;7.322;2023-07-09T14:57:40;99027.28;;;46.59;13.78
13241;BME280;6687;47.790;7.322;2023-07-09T15:00:12;99027.69;;;46.93;12.06
13241;BME280;6687;47.790;7.322;2023-07-09T15:02:40;99040.91;;;46.47;15.34
13241;BME280;6687;47.790;7.322;2023-07-09T15:05:13;99031.81;;;46.10;15.86
13241;BME280;6687;47.790;7.322;2023-07-09T15:07:41;99026.31;;;47.02;14.15
13241;BME280;6687;47.790;7.322;2023-07-09T15:10:13;99025.91;;;46.13;15.28
13241;BME280;6687;47.790;7.322;2023-07-09T15:12:40;99033.50;;;46.11;15.76
13241;BME280;6687;47.790;7.322;2023-07-09T15:15:13;99022.56;;;46.66;15.00
13241;BME280;6687;47.790;7.322;2023-07-09T15:17:41;99028.75;;;46.80;15.22
13241;BME280;6687;47.790;7.322;2023-07-09T15:20:13;99029.41;;;46.57;14.99
13241;BME280;6687;47.790;7.322;2023-07-09T15:22:42;99027.53;;;45.70;16.64
13241;BME280;6687;47.790;7.322;2023-07-09T15:25:13;99025.81;;;46.38;15.79
13241;BME280;6687;47.790;7.322;2023-07-09T15:27:40;99022.06;;;46.88;14.48
13241;BME280;6687;47.790;7.322;2023-07-09T15:30:15;99024.28;;;47.09;14.78
13241;BME280;6687;47.790;7.322;2023-07-09T15:32:44;99022.22;;;46.93;14.63
13241;BME280;6687;47.790;7.322;2023-07-09T15:35:11;99025.59;;;46.76;14.89
13241;BME280;6687;47.790;7.322;2023-07-09T15:37:37;99018.88;;;45.73;15.33
13241;BME280;6687;47.790;7.322;2023-07-09T15:40:17;99010.34;;;45.56;14.01
13241;BME280;6687;47.790;7.322;2023-07-09T15:42:45;99012.59;;;46.16;13.72
13241;BME280;6687;47.790;7.322;2023-07-09T15:45:13;99003.97;;;46.68;13.47
13241;BME280;6687;47.790;7.322;2023-07-09T15:47:40;99012.00;;;47.00;13.05
13241;BME280;6687;47.790;7.322;2023-07-09T15:50:13;99003.56;;;45.65;13.83
13241;BME280;6687;47.790;7.322;2023-07-09T15:52:41;99001.31;;;45.81;13.98
13241;BME280;6687;47.790;7.322;2023-07-09T15:55:13;98996.66;;;46.07;14.43
13241;BME280;6687;47.790;7.322;2023-07-09T15:57:41;98998.91;;;45.91;14.93
13241;BME280;6687;47.790;7.322;2023-07-09T16:00:14;98995.56;;;46.26;14.38
13241;BME280;6687;47.790;7.322;2023-07-09T16:02:41;98996.81;;;46.30;15.32
13241;BME280;6687;47.790;7.322;2023-07-09T16:05:15;98997.09;;;46.03;15.19
13241;BME280;6687;47.790;7.322;2023-07-09T16:07:43;98987.97;;;45.41;16.01
13241;BME280;6687;47.790;7.322;2023-07-09T16:10:10;98988.84;;;45.03;16.11
13241;BME280;6687;47.790;7.322;2023-07-09T16:12:38;98989.66;;;44.65;14.98
13241;BME280;6687;47.790;7.322;2023-07-09T16:15:06;98984.47;;;45.52;14.80
13241;BME280;6687;47.790;7.322;2023-07-09T16:17:35;98988.00;;;45.59;14.92
13241;BME280;6687;47.790;7.322;2023-07-09T16:20:02;98991.38;;;45.87;14.90
13241;BME280;6687;47.790;7.322;2023-07-09T16:22:31;98992.63;;;45.84;15.09
13241;BME280;6687;47.790;7.322;2023-07-09T16:25:12;98990.84;;;45.96;14.99
13241;BME280;6687;47.790;7.322;2023-07-09T16:27:41;98992.41;;;45.67;14.98
13241;BME280;6687;47.790;7.322;2023-07-09T16:30:12;99000.47;;;45.55;15.44
13241;BME280;6687;47.790;7.322;2023-07-09T16:32:39;98994.38;;;45.53;15.74
13241;BME280;6687;47.790;7.322;2023-07-09T16:35:10;98993.59;;;45.14;15.14
13241;BME280;6687;47.790;7.322;2023-07-09T16:37:37;98990.09;;;45.39;15.32
13241;BME280;6687;47.790;7.322;2023-07-09T16:40:05;98991.53;;;46.10;15.24
13241;BME280;6687;47.790;7.322;2023-07-09T16:42:32;98985.38;;;46.33;12.29
13241;BME280;6687;47.790;7.322;2023-07-09T16:45:01;98982.97;;;46.74;13.29
13241;BME280;6687;47.790;7.322;2023-07-09T16:47:29;98989.28;;;46.44;14.34
13241;BME280;6687;47.790;7.322;2023-07-09T16:49:56;98987.78;;;46.78;13.24
13241;BME280;6687;47.790;7.322;2023-07-09T16:52:24;98989.41;;;46.86;14.21
13241;BME280;6687;47.790;7.322;2023-07-09T16:54:52;98988.06;;;46.58;14.25
13241;BME280;6687;47.790;7.322;2023-07-09T16:57:21;98982.34;;;46.23;15.04
13241;BME280;6687;47.790;7.322;2023-07-09T16:59:51;98987.31;;;45.89;15.56
13241;BME280;6687;47.790;7.322;2023-07-09T17:02:24;98983.50;;;45.72;15.96
13241;BME280;6687;47.790;7.322;2023-07-09T17:04:52;98983.56;;;46.09;15.42
13241;BME280;6687;47.790;7.322;2023-07-09T17:07:18;98981.03;;;46.26;15.51
13241;BME280;6687;47.790;7.322;2023-07-09T17:09:45;98976.09;;;46.34;14.51
13241;BME280;6687;47.790;7.322;2023-07-09T17:12:12;98974.75;;;46.43;14.75
13241;BME280;6687;47.790;7.322;2023-07-09T17:14:40;98975.03;;;46.17;15.08
13241;BME280;6687;47.790;7.322;2023-07-09T17:17:11;98971.94;;;45.88;15.65
13241;BME280;6687;47.790;7.322;2023-07-09T17:19:39;98971.50;;;45.91;15.90
13241;BME280;6687;47.790;7.322;2023-07-09T17:22:16;98970.16;;;46.19;15.19
13241;BME280;6687;47.790;7.322;2023-07-09T17:24:44;98971.75;;;45.64;15.17
13241;BME280;6687;47.790;7.322;2023-07-09T17:27:11;98978.00;;;45.72;15.28
13241;BME280;6687;47.790;7.322;2023-07-09T17:29:38;98968.03;;;46.02;15.00
13241;BME280;6687;47.790;7.322;2023-07-09T17:32:05;98966.69;;;45.43;15.67
13241;BME280;6687;47.790;7.322;2023-07-09T17:34:32;98976.59;;;45.88;15.40
13241;BME280;6687;47.790;7.322;2023-07-09T17:37:01;98975.88;;;45.74;15.66
13241;BME280;6687;47.790;7.322;2023-07-09T17:39:27;98966.16;;;45.78;14.22
13241;BME280;6687;47.790;7.322;2023-07-09T17:41:55;98964.94;;;45.74;15.43
13241;BME280;6687;47.790;7.322;2023-07-09T17:44:22;98968.13;;;45.71;15.28
13241;BME280;6687;47.790;7.322;2023-07-09T17:46:51;98969.50;;;45.80;15.42
13241;BME280;6687;47.790;7.322;2023-07-09T17:49:22;98967.28;;;45.45;15.58
13241;BME280;6687;47.790;7.322;2023-07-09T17:51:49;98966.69;;;45.43;15.80
13241;BME280;6687;47.790;7.322;2023-07-09T17:54:20;98969.09;;;45.33;16.16
13241;BME280;6687;47.790;7.322;2023-07-09T17:56:48;98971.88;;;45.19;14.85
13241;BME280;6687;47.790;7.322;2023-07-09T17:59:17;98970.38;;;45.23;14.97
13241;BME280;6687;47.790;7.322;2023-07-09T18:01:44;98978.06;;;45.08;15.81
13241;BME280;6687;47.790;7.322;2023-07-09T18:04:15;98974.91;;;45.04;15.97
13241;BME280;6687;47.790;7.322;2023-07-09T18:06:45;98973.06;;;44.98;15.85
13241;BME280;6687;47.790;7.322;2023-07-09T18:09:15;98973.75;;;44.48;13.84
13241;BME280;6687;47.790;7.322;2023-07-09T18:11:44;98980.59;;;44.71;14.15
13241;BME280;6687;47.790;7.322;2023-07-09T18:14:18;98979.25;;;44.80;14.59
13241;BME280;6687;47.790;7.322;2023-07-09T18:16:47;98982.00;;;44.80;15.31
13241;BME280;6687;47.790;7.322;2023-07-09T18:19:20;98976.22;;;44.57;15.33
13241;BME280;6687;47.790;7.322;2023-07-09T18:21:47;98971.84;;;44.42;15.56
13241;BME280;6687;47.790;7.322;2023-07-09T18:24:14;98970.91;;;44.03;15.59
13241;BME280;6687;47.790;7.322;2023-07-09T18:26:42;98975.75;;;43.81;16.03
13241;BME280;6687;47.790;7.322;2023-07-09T18:29:23;98976.41;;;43.90;16.58
13241;BME280;6687;47.790;7.322;2023-07-09T18:31:51;98979.34;;;43.82;16.34
13241;BME280;6687;47.790;7.322;2023-07-09T18:34:18;98970.97;;;43.70;17.08
13241;BME280;6687;47.790;7.322;2023-07-09T18:36:45;98977.03;;;43.52;16.78
13241;BME280;6687;47.790;7.322;2023-07-09T18:39:11;98977.25;;;43.44;17.17
13241;BME280;6687;47.790;7.322;2023-07-09T18:41:38;98985.59;;;43.09;16.65
13241;BME280;6687;47.790;7.322;2023-07-09T18:44:15;98987.00;;;42.43;16.55
13241;BME280;6687;47.790;7.322;2023-07-09T18:46:42;98991.19;;;42.39;17.48